createdAt,value
2018-09-01T00:01:15.142Z,81.25
2018-09-01T00:03:43.470Z,82.19
2018-09-01T00:06:11.825Z,80.87
2018-09-01T00:08:40.149Z,81.33
2018-09-01T00:11:08.462Z,82.42
2018-09-01T00:13:36.786Z,80.92
2018-09-01T00:16:05.149Z,81.85
2018-09-01T00:18:33.492Z,83.04
2018-09-01T00:21:01.798Z,82.66
2018-09-01T00:23:30.093Z,83.16
2018-09-01T00:25:58.432Z,82.97
2018-09-01T00:28:26.738Z,82.27
2018-09-01T00:30:55.094Z,82.70
2018-09-01T00:33:23.370Z,83.70
2018-09-01T00:35:51.759Z,84.63
2018-09-01T00:38:25.297Z,83.40
2018-09-01T00:40:53.607Z,84.16
2018-09-01T00:43:21.960Z,84.28
2018-09-01T00:45:50.282Z,83.65
2018-09-01T00:48:18.634Z,85.72
2018-09-01T00:50:46.959Z,85.34
2018-09-01T00:53:15.256Z,85.34
2018-09-01T00:55:43.610Z,85.22
2018-09-01T00:58:11.902Z,84.83
2018-09-01T01:00:40.230Z,85.57
2018-09-01T01:03:08.516Z,85.35
2018-09-01T01:05:36.837Z,84.55
2018-09-01T01:08:05.141Z,84.98
2018-09-01T01:10:33.460Z,85.05
2018-09-01T01:13:01.827Z,85.57
2018-09-01T01:15:30.189Z,85.32
2018-09-01T01:17:58.500Z,84.71
2018-09-01T01:20:26.959Z,84.82
2018-09-01T01:22:55.277Z,85.33
2018-09-01T01:25:23.628Z,84.92
2018-09-01T01:27:51.972Z,85.26
2018-09-01T01:30:20.322Z,85.68
2018-09-01T01:32:48.643Z,85.63
2018-09-01T01:35:17.134Z,84.71
2018-09-01T01:37:45.487Z,85.55
2018-09-01T01:40:13.936Z,85.53
2018-09-01T01:42:42.250Z,86.50
2018-09-01T01:45:10.621Z,86.33
2018-09-01T01:47:40.742Z,85.85
2018-09-01T01:50:10.567Z,86.82
2018-09-01T01:52:39.073Z,86.37
2018-09-01T01:55:07.708Z,85.98
2018-09-01T01:57:40.924Z,85.66
2018-09-01T02:00:09.978Z,85.96
2018-09-01T02:02:38.741Z,86.27
2018-09-01T02:05:08.862Z,86.23
2018-09-01T02:07:37.177Z,86.30
2018-09-01T02:10:12.452Z,86.47
2018-09-01T02:12:40.752Z,86.53
2018-09-01T02:15:09.279Z,86.10
2018-09-01T02:17:37.608Z,85.74
2018-09-01T02:20:06.018Z,86.40
2018-09-01T02:22:34.367Z,86.30
2018-09-01T02:25:02.765Z,87.65
2018-09-01T02:27:31.124Z,88.60
2018-09-01T02:30:00.149Z,87.37
2018-09-01T02:32:28.475Z,87.62
2018-09-01T02:34:56.803Z,87.28
2018-09-01T02:37:25.154Z,87.65
2018-09-01T02:39:53.510Z,86.60
2018-09-01T02:42:21.829Z,85.83
2018-09-01T02:44:50.146Z,85.88
2018-09-01T02:47:18.518Z,85.73
2018-09-01T02:49:46.842Z,86.83
2018-09-01T02:52:15.799Z,85.42
2018-09-01T02:54:44.153Z,86.31
2018-09-01T02:57:12.428Z,86.59
2018-09-01T02:59:40.735Z,85.66
2018-09-01T03:02:09.053Z,86.05
2018-09-01T03:04:37.439Z,85.47
2018-09-01T03:07:06.079Z,84.89
2018-09-01T03:09:34.428Z,85.58
2018-09-01T03:12:02.766Z,85.77
2018-09-01T03:14:31.099Z,85.96
2018-09-01T03:16:59.519Z,86.23
2018-09-01T03:19:27.857Z,87.11
2018-09-01T03:21:56.174Z,86.15
2018-09-01T03:24:24.511Z,86.35
2018-09-01T03:26:53.036Z,85.88
2018-09-01T03:29:21.446Z,86.74
2018-09-01T03:31:49.788Z,86.68
2018-09-01T03:34:18.092Z,86.99
2018-09-01T03:36:46.440Z,86.18
2018-09-01T03:39:14.829Z,86.47
2018-09-01T03:41:43.161Z,86.98
2018-09-01T03:44:11.798Z,87.52
2018-09-01T03:46:40.106Z,87.51
2018-09-01T03:49:09.614Z,86.74
2018-09-01T03:51:38.014Z,86.94
2018-09-01T03:54:06.643Z,86.64
2018-09-01T03:56:35.014Z,86.70
2018-09-01T03:59:03.457Z,87.20
2018-09-01T04:01:31.786Z,87.84
2018-09-01T04:04:00.108Z,86.24
2018-09-01T04:06:28.852Z,86.91
2018-09-01T04:08:57.221Z,87.38
2018-09-01T04:11:25.543Z,87.33
2018-09-01T04:13:53.872Z,86.41
2018-09-01T04:16:22.257Z,86.59
2018-09-01T04:18:50.576Z,87.53
2018-09-01T04:21:19.114Z,86.14
2018-09-01T04:23:47.463Z,86.67
2018-09-01T04:26:15.759Z,86.74
2018-09-01T04:28:44.111Z,87.45
2018-09-01T04:31:12.448Z,87.96
2018-09-01T04:33:40.846Z,87.77
2018-09-01T04:36:09.229Z,87.34
2018-09-01T04:38:37.658Z,87.98
2018-09-01T04:41:06.218Z,88.35
2018-09-01T04:43:34.634Z,88.22
2018-09-01T04:46:02.949Z,88.81
2018-09-01T04:48:31.257Z,87.45
2018-09-01T04:50:59.599Z,87.63
2018-09-01T04:53:27.994Z,88.46
2018-09-01T04:55:56.327Z,87.38
2018-09-01T04:58:24.666Z,87.04
2018-09-01T05:00:53.030Z,87.38
2018-09-01T05:03:21.288Z,87.89
2018-09-01T05:05:49.646Z,88.07
2018-09-01T05:08:17.943Z,87.33
2018-09-01T05:10:46.264Z,87.60
2018-09-01T05:13:14.604Z,87.55
2018-09-01T05:15:42.997Z,87.61
2018-09-01T05:18:11.395Z,87.50
2018-09-01T05:20:39.915Z,87.44
2018-09-01T05:23:08.499Z,88.04
2018-09-01T05:25:36.875Z,87.09
2018-09-01T05:28:05.355Z,87.59
2018-09-01T05:30:33.806Z,88.12
2018-09-01T05:33:02.459Z,87.90
2018-09-01T05:35:31.110Z,87.16
2018-09-01T05:38:00.265Z,87.90
2018-09-01T05:40:29.311Z,86.84
2018-09-01T05:42:58.058Z,87.21
2018-09-01T05:45:26.924Z,87.25
2018-09-01T05:47:57.575Z,87.44
2018-09-01T05:50:26.299Z,87.19
2018-09-01T05:52:54.639Z,87.92
2018-09-01T05:55:22.974Z,88.25
2018-09-01T05:57:51.692Z,87.78
2018-09-01T06:00:22.007Z,87.98
2018-09-01T06:02:51.853Z,87.73
2018-09-01T06:05:20.249Z,87.44
2018-09-01T06:07:48.930Z,87.37
2018-09-01T06:10:17.366Z,86.63
2018-09-01T06:12:46.355Z,86.13
2018-09-01T06:15:14.740Z,83.94
2018-09-01T06:17:43.307Z,83.66
2018-09-01T06:20:11.687Z,82.53
2018-09-01T06:22:40.274Z,83.46
2018-09-01T06:25:08.604Z,82.40
2018-09-01T06:27:41.374Z,82.13
2018-09-01T06:30:15.107Z,83.21
2018-09-01T06:32:43.473Z,83.00
2018-09-01T06:35:11.935Z,83.06
2018-09-01T06:37:40.366Z,82.71
2018-09-01T06:40:08.807Z,80.71
2018-09-01T06:42:37.107Z,80.30
2018-09-01T06:45:05.652Z,81.58
2018-09-01T06:47:34.389Z,81.00
2018-09-01T06:50:02.798Z,80.53
2018-09-01T06:52:31.208Z,80.09
2018-09-01T06:54:59.725Z,79.89
2018-09-01T06:57:28.054Z,79.96
2018-09-01T06:59:56.385Z,79.86
2018-09-01T07:02:24.724Z,80.07
2018-09-01T07:04:53.172Z,79.67
2018-09-01T07:07:21.514Z,80.20
2018-09-01T07:09:49.898Z,79.72
2018-09-01T07:12:18.275Z,79.45
2018-09-01T07:14:46.589Z,78.70
2018-09-01T07:17:14.963Z,78.98
2018-09-01T07:19:43.279Z,78.54
2018-09-01T07:22:11.607Z,78.62
2018-09-01T07:24:39.940Z,78.81
2018-09-01T07:27:08.501Z,78.40
2018-09-01T07:29:36.835Z,78.74
2018-09-01T07:32:05.175Z,78.34
2018-09-01T07:34:33.566Z,78.33
2018-09-01T07:37:01.918Z,78.49
2018-09-01T07:39:30.310Z,78.10
2018-09-01T07:41:58.633Z,78.07
2018-09-01T07:44:26.992Z,77.91
2018-09-01T07:46:55.277Z,77.61
2018-09-01T07:49:23.706Z,77.75
2018-09-01T07:51:53.186Z,77.55
2018-09-01T07:54:21.551Z,77.60
2018-09-01T07:56:50.385Z,77.05
2018-09-01T07:59:19.117Z,77.27
2018-09-01T08:01:47.563Z,76.61
2018-09-01T08:04:15.953Z,76.86
2018-09-01T08:06:44.281Z,76.77
2018-09-01T08:09:12.823Z,76.61
2018-09-01T08:11:57.439Z,76.30
2018-09-01T08:14:41.041Z,75.81
2018-09-01T08:17:09.542Z,74.92
2018-09-01T08:19:37.882Z,75.22
2018-09-01T08:22:06.409Z,73.90
2018-09-01T08:24:34.769Z,74.12
2018-09-01T08:27:03.141Z,74.04
2018-09-01T08:29:31.619Z,72.47
2018-09-01T08:31:59.924Z,71.87
2018-09-01T08:34:28.258Z,72.39
2018-09-01T08:36:56.615Z,71.86
2018-09-01T08:39:24.984Z,70.27
2018-09-01T08:41:53.331Z,70.85
2018-09-01T08:44:21.627Z,69.37
2018-09-01T08:46:49.991Z,68.98
2018-09-01T08:49:18.336Z,68.81
2018-09-01T08:51:46.646Z,69.07
2018-09-01T08:54:14.967Z,68.98
2018-09-01T08:56:43.379Z,69.18
2018-09-01T08:59:11.622Z,67.35
2018-09-01T09:01:39.934Z,67.11
2018-09-01T09:04:08.303Z,68.37
2018-09-01T09:06:36.752Z,68.17
2018-09-01T09:09:06.621Z,67.56
2018-09-01T09:11:35.396Z,67.18
2018-09-01T09:14:03.931Z,68.39
2018-09-01T09:16:32.282Z,68.57
2018-09-01T09:19:00.611Z,69.76
2018-09-01T09:21:28.963Z,68.58
2018-09-01T09:23:57.437Z,68.43
2018-09-01T09:26:25.959Z,69.52
2018-09-01T09:28:54.247Z,69.15
2018-09-01T09:31:22.735Z,69.31
2018-09-01T09:33:51.011Z,69.69
2018-09-01T09:36:19.379Z,68.24
2018-09-01T09:38:47.790Z,67.15
2018-09-01T09:41:16.147Z,67.52
2018-09-01T09:43:44.511Z,66.87
2018-09-01T09:46:12.927Z,66.38
2018-09-01T09:48:41.279Z,65.92
2018-09-01T09:51:09.942Z,66.67
2018-09-01T09:53:38.320Z,67.07
2018-09-01T09:56:06.860Z,65.68
2018-09-01T09:58:35.167Z,65.18
2018-09-01T10:01:06.555Z,64.85
2018-09-01T10:03:36.598Z,64.84
2018-09-01T10:06:04.916Z,65.19
2018-09-01T10:08:33.342Z,64.55
2018-09-01T10:11:01.931Z,64.65
2018-09-01T10:13:30.227Z,62.14
2018-09-01T10:15:58.766Z,61.13
2018-09-01T10:18:26.981Z,60.28
2018-09-01T10:20:55.351Z,60.63
2018-09-01T10:23:23.739Z,60.35
2018-09-01T10:25:52.124Z,60.55
2018-09-01T10:28:20.772Z,61.11
2018-09-01T10:30:49.334Z,60.27
2018-09-01T10:33:17.767Z,59.09
2018-09-01T10:35:46.074Z,59.34
2018-09-01T10:38:14.433Z,58.80
2018-09-01T10:40:42.772Z,56.71
2018-09-01T10:43:11.332Z,58.77
2018-09-01T10:45:39.714Z,59.03
2018-09-01T10:48:08.094Z,58.48
2018-09-01T10:50:36.553Z,58.24
2018-09-01T10:53:05.191Z,58.11
2018-09-01T10:55:33.578Z,57.98
2018-09-01T10:58:01.924Z,58.49
2018-09-01T11:00:30.223Z,59.90
2018-09-01T11:02:58.598Z,59.42
2018-09-01T11:05:26.981Z,57.55
2018-09-01T11:07:55.432Z,59.03
2018-09-01T11:10:23.874Z,57.41
2018-09-01T11:12:52.288Z,55.62
2018-09-01T11:15:20.662Z,53.35
2018-09-01T11:17:49.087Z,55.35
2018-09-01T11:20:17.408Z,55.33
2018-09-01T11:22:45.807Z,54.53
2018-09-01T11:25:14.426Z,54.63
2018-09-01T11:27:42.890Z,54.44
2018-09-01T11:30:11.890Z,52.93
2018-09-01T11:32:40.263Z,51.84
2018-09-01T11:35:08.848Z,53.18
2018-09-01T11:37:37.840Z,52.69
2018-09-01T11:40:06.823Z,51.27
2018-09-01T11:42:35.237Z,53.70
2018-09-01T11:45:03.534Z,51.13
2018-09-01T11:47:31.866Z,51.07
2018-09-01T11:50:00.307Z,49.22
2018-09-01T11:52:28.844Z,50.91
2018-09-01T11:54:57.833Z,50.87
2018-09-01T11:57:26.273Z,50.12
2018-09-01T11:59:54.795Z,51.01
2018-09-01T12:02:23.240Z,50.77
2018-09-01T12:04:51.532Z,49.24
2018-09-01T12:07:20.873Z,49.79
2018-09-01T12:09:49.353Z,49.83
2018-09-01T12:12:17.938Z,50.68
2018-09-01T12:14:46.433Z,50.86
2018-09-01T12:17:14.747Z,49.99
2018-09-01T12:19:43.046Z,49.81
2018-09-01T12:22:11.722Z,49.90
2018-09-01T12:24:40.054Z,49.35
2018-09-01T12:27:08.454Z,48.96
2018-09-01T12:29:36.833Z,49.55
2018-09-01T12:32:05.251Z,49.20
2018-09-01T12:34:33.599Z,48.66
2018-09-01T12:37:02.049Z,48.14
2018-09-01T12:39:30.428Z,47.50
2018-09-01T12:41:58.824Z,48.13
2018-09-01T12:44:27.157Z,47.38
2018-09-01T12:46:55.498Z,47.56
2018-09-01T12:49:24.208Z,48.47
2018-09-01T12:51:52.879Z,46.97
2018-09-01T12:54:21.242Z,46.75
2018-09-01T12:56:49.648Z,47.95
2018-09-01T12:59:18.018Z,48.18
2018-09-01T13:01:46.401Z,46.31
2018-09-01T13:04:14.859Z,47.27
2018-09-01T13:06:43.214Z,45.39
2018-09-01T13:09:11.623Z,46.28
2018-09-01T13:11:40.124Z,45.35
2018-09-01T13:14:08.682Z,45.25
2018-09-01T13:16:36.979Z,44.67
2018-09-01T13:19:05.431Z,44.58
2018-09-01T13:21:33.742Z,44.15
2018-09-01T13:24:02.197Z,45.76
2018-09-01T13:26:30.740Z,45.38
2018-09-01T13:28:59.074Z,45.62
2018-09-01T13:31:27.519Z,44.94
2018-09-01T13:33:56.036Z,45.63
2018-09-01T13:36:24.456Z,45.68
2018-09-01T13:38:52.870Z,46.49
2018-09-01T13:41:21.162Z,44.40
2018-09-01T13:43:49.479Z,43.35
2018-09-01T13:46:17.904Z,44.81
2018-09-01T13:48:46.300Z,45.52
2018-09-01T13:51:14.861Z,44.59
2018-09-01T13:53:44.247Z,43.79
2018-09-01T13:56:13.885Z,45.51
2018-09-01T13:58:42.263Z,44.30
2018-09-01T14:01:10.544Z,43.73
2018-09-01T14:03:38.885Z,45.00
2018-09-01T14:06:07.347Z,43.28
2018-09-01T14:08:35.687Z,43.79
2018-09-01T14:11:04.304Z,43.35
2018-09-01T14:13:32.822Z,44.08
2018-09-01T14:16:03.466Z,44.64
2018-09-01T14:18:35.114Z,45.75
2018-09-01T14:21:05.012Z,44.68
2018-09-01T14:23:33.404Z,45.49
2018-09-01T14:26:02.941Z,44.79
2018-09-01T14:28:31.807Z,44.49
2018-09-01T14:31:00.125Z,42.68
2018-09-01T14:33:28.731Z,42.75
2018-09-01T14:38:37.697Z,42.75
2018-09-01T14:41:07.031Z,41.41
2018-09-01T14:43:35.446Z,41.08
2018-09-01T14:46:03.795Z,42.88
2018-09-01T14:48:32.129Z,42.45
2018-09-01T14:51:00.462Z,43.65
2018-09-01T14:53:28.805Z,43.08
2018-09-01T14:55:57.228Z,42.94
2018-09-01T14:58:26.632Z,42.94
2018-09-01T15:00:55.110Z,42.77
2018-09-01T15:03:23.568Z,41.28
2018-09-01T15:05:51.959Z,42.00
2018-09-01T15:08:20.430Z,40.13
2018-09-01T15:10:48.826Z,40.00
2018-09-01T15:13:17.410Z,41.71
2018-09-01T15:15:45.767Z,41.34
2018-09-01T15:18:14.139Z,41.78
2018-09-01T15:20:46.590Z,41.85
2018-09-01T15:23:15.135Z,41.51
2018-09-01T15:25:43.488Z,40.70
2018-09-01T15:28:11.868Z,42.04
2018-09-01T15:30:40.214Z,42.25
2018-09-01T15:33:08.754Z,42.88
2018-09-01T15:35:37.166Z,41.64
2018-09-01T15:38:05.515Z,42.97
2018-09-01T15:40:34.266Z,44.28
2018-09-01T15:43:02.559Z,41.84
2018-09-01T15:45:31.498Z,43.02
2018-09-01T15:47:59.843Z,43.30
2018-09-01T15:50:28.307Z,43.11
2018-09-01T15:52:56.752Z,42.69
2018-09-01T15:55:28.498Z,42.55
2018-09-01T15:57:59.500Z,42.57
2018-09-01T16:01:01.580Z,41.95
2018-09-01T16:03:32.575Z,42.52
2018-09-01T16:06:01.066Z,42.67
2018-09-01T16:08:29.531Z,43.52
2018-09-01T16:10:57.963Z,42.35
2018-09-01T16:13:28.284Z,44.30
2018-09-01T16:15:57.546Z,44.41
2018-09-01T16:18:26.087Z,43.59
2018-09-01T16:20:54.633Z,42.74
2018-09-01T16:23:25.109Z,43.65
2018-09-01T16:25:53.463Z,43.12
2018-09-01T16:28:22.302Z,43.20
2018-09-01T16:30:50.743Z,42.75
2018-09-01T16:33:19.279Z,43.05
2018-09-01T16:35:47.785Z,43.51
2018-09-01T16:38:16.540Z,44.90
2018-09-01T16:40:45.074Z,45.12
2018-09-01T16:43:14.094Z,44.29
2018-09-01T16:45:42.456Z,45.08
2018-09-01T16:48:10.963Z,43.84
2018-09-01T16:50:39.382Z,45.56
2018-09-01T16:53:08.031Z,43.78
2018-09-01T16:55:36.430Z,43.55
2018-09-01T16:58:05.226Z,44.88
2018-09-01T17:00:33.845Z,45.61
2018-09-01T17:03:02.123Z,44.93
2018-09-01T17:05:30.461Z,45.67
2018-09-01T17:07:58.816Z,44.27
2018-09-01T17:10:27.095Z,45.32
2018-09-01T17:12:55.685Z,45.60
2018-09-01T17:15:24.038Z,45.32
2018-09-01T17:17:52.541Z,45.72
2018-09-01T17:20:21.427Z,44.67
2018-09-01T17:22:49.749Z,45.87
2018-09-01T17:25:18.073Z,45.49
2018-09-01T17:27:47.004Z,46.59
2018-09-01T17:30:15.475Z,46.94
2018-09-01T17:32:43.831Z,46.57
2018-09-01T17:35:12.439Z,47.95
2018-09-01T17:37:45.732Z,47.46
2018-09-01T17:40:16.055Z,47.48
2018-09-01T17:42:46.179Z,48.61
2018-09-01T17:45:14.769Z,48.70
2018-09-01T17:47:43.039Z,49.96
2018-09-01T17:50:11.618Z,49.88
2018-09-01T17:52:39.959Z,49.47
2018-09-01T17:55:08.755Z,50.02
2018-09-01T17:57:37.307Z,50.25
2018-09-01T18:00:05.950Z,49.84
2018-09-01T18:02:35.784Z,50.88
2018-09-01T18:05:04.792Z,51.20
2018-09-01T18:07:34.199Z,51.70
2018-09-01T18:10:03.163Z,52.07
2018-09-01T18:12:31.598Z,53.43
2018-09-01T18:14:59.946Z,54.40
2018-09-01T18:17:28.564Z,54.52
2018-09-01T18:19:57.512Z,56.11
2018-09-01T18:22:25.806Z,55.31
2018-09-01T18:24:54.129Z,57.20
2018-09-01T18:27:22.398Z,57.05
2018-09-01T18:29:50.786Z,57.83
2018-09-01T18:32:19.165Z,58.92
2018-09-01T18:34:47.431Z,59.29
2018-09-01T18:37:15.758Z,60.12
2018-09-01T18:39:44.103Z,60.13
2018-09-01T18:42:12.398Z,60.66
2018-09-01T18:44:40.727Z,60.93
2018-09-01T18:47:09.137Z,61.34
2018-09-01T18:49:37.577Z,62.22
2018-09-01T18:52:05.942Z,61.84
2018-09-01T18:54:35.526Z,62.78
2018-09-01T18:57:03.916Z,63.08
2018-09-01T18:59:32.271Z,62.41
2018-09-01T19:02:00.987Z,62.84
2018-09-01T19:04:29.350Z,64.19
2018-09-01T19:06:57.833Z,63.75
2018-09-01T19:09:26.307Z,64.26
2018-09-01T19:11:57.067Z,65.06
2018-09-01T19:14:25.366Z,64.56
2018-09-01T19:16:53.939Z,65.08
2018-09-01T19:19:23.034Z,65.24
2018-09-01T19:21:51.386Z,65.68
2018-09-01T19:24:19.879Z,65.51
2018-09-01T19:26:48.845Z,65.88
2018-09-01T19:29:18.006Z,66.36
2018-09-01T19:31:47.299Z,67.19
2018-09-01T19:34:15.983Z,66.09
2018-09-01T19:36:44.543Z,66.76
2018-09-01T19:39:13.558Z,68.16
2018-09-01T19:41:42.912Z,68.36
2018-09-01T19:44:11.402Z,67.69
2018-09-01T19:46:39.994Z,68.37
2018-09-01T19:49:08.827Z,68.36
2018-09-01T19:51:37.227Z,68.82
2018-09-01T19:54:05.815Z,68.97
2018-09-01T19:56:34.142Z,68.78
2018-09-01T19:59:02.570Z,69.41
2018-09-01T20:01:30.991Z,69.76
2018-09-01T20:03:59.394Z,70.09
2018-09-01T20:06:27.739Z,70.05
2018-09-01T20:08:56.063Z,70.65
2018-09-01T20:11:24.461Z,70.25
2018-09-01T20:13:52.811Z,70.46
2018-09-01T20:16:21.289Z,70.53
2018-09-01T20:18:49.695Z,71.74
2018-09-01T20:21:18.006Z,71.31
2018-09-01T20:23:46.303Z,71.48
2018-09-01T20:26:15.065Z,71.59
2018-09-01T20:28:43.413Z,71.43
2018-09-01T20:31:12.263Z,71.72
2018-09-01T20:33:40.574Z,72.38
2018-09-01T20:36:14.883Z,72.14
2018-09-01T20:38:43.673Z,71.73
2018-09-01T20:41:12.425Z,72.15
2018-09-01T20:43:40.744Z,71.83
2018-09-01T20:46:09.123Z,72.56
2018-09-01T20:48:37.512Z,73.25
2018-09-01T20:51:06.117Z,73.18
2018-09-01T20:53:34.551Z,72.74
2018-09-01T20:56:02.927Z,73.40
2018-09-01T20:58:31.282Z,73.76
2018-09-01T21:00:59.634Z,73.58
2018-09-01T21:03:27.996Z,73.33
2018-09-01T21:05:56.397Z,73.33
2018-09-01T21:08:24.742Z,73.67
2018-09-01T21:10:53.227Z,73.88
2018-09-01T21:13:21.609Z,73.86
2018-09-01T21:15:49.939Z,74.16
2018-09-01T21:18:18.278Z,74.78
2018-09-01T21:20:46.685Z,74.42
2018-09-01T21:23:15.139Z,73.71
2018-09-01T21:25:43.572Z,74.21
2018-09-01T21:28:12.038Z,74.83
2018-09-01T21:30:40.456Z,75.44
2018-09-01T21:33:08.838Z,74.84
2018-09-01T21:35:37.257Z,75.52
2018-09-01T21:38:05.663Z,75.52
2018-09-01T21:40:34.107Z,75.58
2018-09-01T21:43:02.543Z,75.83
2018-09-01T21:45:30.851Z,75.84
2018-09-01T21:48:00.343Z,76.09
2018-09-01T21:50:28.751Z,76.67
2018-09-01T21:52:57.059Z,76.35
2018-09-01T21:55:25.451Z,76.71
2018-09-01T21:57:53.956Z,76.88
2018-09-01T22:00:22.382Z,77.22
2018-09-01T22:02:50.756Z,77.97
2018-09-01T22:05:19.631Z,77.70
2018-09-01T22:07:48.178Z,77.33
2018-09-01T22:10:16.576Z,77.69
2018-09-01T22:12:45.052Z,78.05
2018-09-01T22:15:13.468Z,78.38
2018-09-01T22:17:41.797Z,78.56
2018-09-01T22:20:10.294Z,78.47
2018-09-01T22:22:38.629Z,79.14
2018-09-01T22:25:06.997Z,78.74
2018-09-01T22:27:35.418Z,79.01
2018-09-01T22:30:03.823Z,78.12
2018-09-01T22:32:32.206Z,78.79
2018-09-01T22:35:00.552Z,79.14
2018-09-01T22:37:28.890Z,79.06
2018-09-01T22:39:57.200Z,78.59
2018-09-01T22:42:25.592Z,78.94
2018-09-01T22:44:53.916Z,78.86
2018-09-01T22:47:25.178Z,78.72
2018-09-01T22:49:53.511Z,79.08
2018-09-01T22:52:21.982Z,78.81
2018-09-01T22:54:50.573Z,78.30
2018-09-01T22:57:19.203Z,78.57
2018-09-01T22:59:47.631Z,78.42
2018-09-01T23:02:16.176Z,78.33
2018-09-01T23:04:44.626Z,78.74
2018-09-01T23:07:13.227Z,78.21
2018-09-01T23:09:41.636Z,78.13
2018-09-01T23:12:09.996Z,77.42
2018-09-01T23:14:38.320Z,77.61
2018-09-01T23:17:06.774Z,77.12
2018-09-01T23:19:35.157Z,77.83
2018-09-01T23:22:03.505Z,77.80
2018-09-01T23:24:31.862Z,78.26
2018-09-01T23:27:00.207Z,78.14
2018-09-01T23:29:29.618Z,78.74
2018-09-01T23:31:57.985Z,79.24
2018-09-01T23:34:26.303Z,78.67
2018-09-01T23:36:54.649Z,78.79
2018-09-01T23:39:23.069Z,78.84
2018-09-01T23:41:51.515Z,79.43
2018-09-01T23:44:19.868Z,79.82
2018-09-01T23:46:48.256Z,79.27
2018-09-01T23:49:16.634Z,80.07
2018-09-01T23:51:44.973Z,79.90
2018-09-01T23:54:13.282Z,80.22
2018-09-01T23:56:41.616Z,80.38
2018-09-01T23:59:09.989Z,80.21
